sensor_id;sensor_type;location;lat;lon;timestamp;pressure;altitude;pressure_sealevel;temperature;humidity
64200;BME280;50516;52.272;5.136;2022-12-22T00:01:14;100400.63;;;9.81;100.00
64200;BME280;50516;52.272;5.136;2022-12-22T00:03:58;100406.66;;;9.83;100.00
64200;BME280;50516;52.272;5.136;2022-12-22T00:06:42;100402.47;;;9.96;100.00
64200;BME280;50516;52.272;5.136;2022-12-22T00:09:26;100393.97;;;9.98;100.00
64200;BME280;50516;52.272;5.136;2022-12-22T00:12:11;100387.69;;;9.97;99.81
64200;BME280;50516;52.272;5.136;2022-12-22T00:14:56;100389.88;;;9.95;99.77
64200;BME280;50516;52.272;5.136;2022-12-22T00:17:40;100389.88;;;9.95;100.00
64200;BME280;50516;52.272;5.136;2022-12-22T00:20:24;100394.25;;;10.01;100.00
64200;BME280;50516;52.272;5.136;2022-12-22T00:23:09;100389.09;;;9.84;100.00
64200;BME280;50516;52.272;5.136;2022-12-22T00:25:54;100385.25;;;9.85;100.00
64200;BME280;50516;52.272;5.136;2022-12-22T00:28:38;100371.28;;;9.87;100.00
64200;BME280;50516;52.272;5.136;2022-12-22T00:31:22;100377.81;;;9.91;100.00
64200;BME280;50516;52.272;5.136;2022-12-22T00:34:19;100366.31;;;9.89;100.00
64200;BME280;50516;52.272;5.136;2022-12-22T00:37:03;100357.75;;;10.01;100.00
64200;BME280;50516;52.272;5.136;2022-12-22T00:39:48;100356.97;;;9.95;100.00
64200;BME280;50516;52.272;5.136;2022-12-22T00:42:32;100358.09;;;9.89;100.00
64200;BME280;50516;52.272;5.136;2022-12-22T00:45:16;100344.09;;;9.91;100.00
64200;BME280;50516;52.272;5.136;2022-12-22T00:48:00;100341.88;;;9.98;100.00
64200;BME280;50516;52.272;5.136;2022-12-22T00:50:44;100347.94;;;9.90;100.00
64200;BME280;50516;52.272;5.136;2022-12-22T00:53:28;100347.13;;;9.89;100.00
64200;BME280;50516;52.272;5.136;2022-12-22T00:56:13;100347.16;;;9.84;100.00
64200;BME280;50516;52.272;5.136;2022-12-22T00:58:58;100346.56;;;9.92;100.00
64200;BME280;50516;52.272;5.136;2022-12-22T01:01:43;100346.00;;;10.00;100.00
64200;BME280;50516;52.272;5.136;2022-12-22T01:04:27;100339.91;;;10.09;99.99
64200;BME280;50516;52.272;5.136;2022-12-22T01:07:15;100342.13;;;10.07;99.99
64200;BME280;50516;52.272;5.136;2022-12-22T01:10:01;100331.66;;;10.14;99.42
64200;BME280;50516;52.272;5.136;2022-12-22T01:12:45;100323.69;;;10.17;99.34
64200;BME280;50516;52.272;5.136;2022-12-22T01:15:29;100322.56;;;10.18;99.18
64200;BME280;50516;52.272;5.136;2022-12-22T01:18:13;100325.63;;;10.12;98.94
64200;BME280;50516;52.272;5.136;2022-12-22T01:20:57;100318.22;;;10.17;99.32
64200;BME280;50516;52.272;5.136;2022-12-22T01:23:41;100323.97;;;10.16;99.21
64200;BME280;50516;52.272;5.136;2022-12-22T01:26:26;100326.72;;;10.16;99.32
64200;BME280;50516;52.272;5.136;2022-12-22T01:29:10;100325.34;;;10.13;99.22
64200;BME280;50516;52.272;5.136;2022-12-22T01:31:54;100315.16;;;10.19;99.12
64200;BME280;50516;52.272;5.136;2022-12-22T01:34:39;100324.69;;;10.32;98.49
64200;BME280;50516;52.272;5.136;2022-12-22T01:37:23;100325.00;;;10.35;98.07
64200;BME280;50516;52.272;5.136;2022-12-22T01:40:18;100324.97;;;10.40;98.14
64200;BME280;50516;52.272;5.136;2022-12-22T01:43:23;100320.31;;;10.36;98.14
64200;BME280;50516;52.272;5.136;2022-12-22T01:46:27;100320.03;;;10.37;98.12
64200;BME280;50516;52.272;5.136;2022-12-22T01:49:23;100310.72;;;10.38;98.13
64200;BME280;50516;52.272;5.136;2022-12-22T01:52:11;100304.09;;;10.39;97.93
64200;BME280;50516;52.272;5.136;2022-12-22T01:54:59;100312.34;;;10.39;97.52
64200;BME280;50516;52.272;5.136;2022-12-22T01:57:45;100309.59;;;10.39;97.54
64200;BME280;50516;52.272;5.136;2022-12-22T02:00:28;100300.78;;;10.43;97.68
64200;BME280;50516;52.272;5.136;2022-12-22T02:03:21;100299.16;;;10.41;97.28
64200;BME280;50516;52.272;5.136;2022-12-22T02:12:13;100286.78;;;10.44;97.60
64200;BME280;50516;52.272;5.136;2022-12-22T02:15:07;100276.91;;;10.43;97.34
64200;BME280;50516;52.272;5.136;2022-12-22T02:18:13;100281.88;;;10.41;97.59
64200;BME280;50516;52.272;5.136;2022-12-22T02:21:03;100278.03;;;10.42;97.50
64200;BME280;50516;52.272;5.136;2022-12-22T02:26:44;100281.28;;;10.44;97.53
64200;BME280;50516;52.272;5.136;2022-12-22T02:29:32;100282.09;;;10.45;97.40
64200;BME280;50516;52.272;5.136;2022-12-22T02:32:18;100282.16;;;10.39;97.44
64200;BME280;50516;52.272;5.136;2022-12-22T02:35:12;100281.63;;;10.37;97.51
64200;BME280;50516;52.272;5.136;2022-12-22T02:38:09;100276.94;;;10.38;97.75
64200;BME280;50516;52.272;5.136;2022-12-22T02:41:20;100264.88;;;10.39;97.66
64200;BME280;50516;52.272;5.136;2022-12-22T02:44:20;100255.81;;;10.38;97.41
64200;BME280;50516;52.272;5.136;2022-12-22T02:50:22;100254.47;;;10.31;97.87
64200;BME280;50516;52.272;5.136;2022-12-22T02:53:10;100256.97;;;10.27;98.27
64200;BME280;50516;52.272;5.136;2022-12-22T02:56:03;100255.59;;;10.24;98.50
64200;BME280;50516;52.272;5.136;2022-12-22T02:58:48;100254.75;;;10.29;98.29
64200;BME280;50516;52.272;5.136;2022-12-22T03:01:32;100247.31;;;10.35;98.07
64200;BME280;50516;52.272;5.136;2022-12-22T03:04:16;100245.94;;;10.37;97.72
64200;BME280;50516;52.272;5.136;2022-12-22T03:06:59;100236.03;;;10.41;97.59
64200;BME280;50516;52.272;5.136;2022-12-22T03:09:43;100237.66;;;10.43;97.73
64200;BME280;50516;52.272;5.136;2022-12-22T03:12:27;100234.69;;;10.39;97.51
64200;BME280;50516;52.272;5.136;2022-12-22T03:15:11;100233.59;;;10.40;97.38
64200;BME280;50516;52.272;5.136;2022-12-22T03:18:04;100234.16;;;10.37;97.82
64200;BME280;50516;52.272;5.136;2022-12-22T03:20:30;100232.47;;;10.41;97.54
64200;BME280;50516;52.272;5.136;2022-12-22T03:23:14;100230.25;;;10.43;97.28
64200;BME280;50516;52.272;5.136;2022-12-22T03:25:58;100229.97;;;10.45;97.15
64200;BME280;50516;52.272;5.136;2022-12-22T03:28:26;100221.78;;;10.39;97.80
64200;BME280;50516;52.272;5.136;2022-12-22T03:30:57;100214.34;;;10.45;97.30
64200;BME280;50516;52.272;5.136;2022-12-22T03:33:23;100226.41;;;10.44;97.46
64200;BME280;50516;52.272;5.136;2022-12-22T03:35:48;100227.78;;;10.41;97.43
64200;BME280;50516;52.272;5.136;2022-12-22T03:38:14;100220.63;;;10.46;97.50
64200;BME280;50516;52.272;5.136;2022-12-22T03:40:39;100216.25;;;10.45;97.26
64200;BME280;50516;52.272;5.136;2022-12-22T03:43:05;100218.69;;;10.46;97.25
64200;BME280;50516;52.272;5.136;2022-12-22T03:45:54;100214.84;;;10.47;97.04
64200;BME280;50516;52.272;5.136;2022-12-22T03:48:37;100202.78;;;10.48;97.11
64200;BME280;50516;52.272;5.136;2022-12-22T03:51:03;100200.84;;;10.49;97.10
64200;BME280;50516;52.272;5.136;2022-12-22T03:53:28;100206.91;;;10.46;97.13
64200;BME280;50516;52.272;5.136;2022-12-22T03:55:53;100202.00;;;10.43;97.58
64200;BME280;50516;52.272;5.136;2022-12-22T03:58:19;100195.34;;;10.49;97.17
64200;BME280;50516;52.272;5.136;2022-12-22T04:00:44;100191.53;;;10.50;96.80
64200;BME280;50516;52.272;5.136;2022-12-22T04:03:09;100194.78;;;10.52;97.28
64200;BME280;50516;52.272;5.136;2022-12-22T04:05:35;100202.00;;;10.43;96.96
64200;BME280;50516;52.272;5.136;2022-12-22T04:08:00;100210.28;;;10.37;97.47
64200;BME280;50516;52.272;5.136;2022-12-22T04:10:25;100206.91;;;10.46;97.62
64200;BME280;50516;52.272;5.136;2022-12-22T04:13:09;100202.50;;;10.45;97.18
64200;BME280;50516;52.272;5.136;2022-12-22T04:15:34;100212.41;;;10.46;96.91
64200;BME280;50516;52.272;5.136;2022-12-22T04:17:59;100220.34;;;10.47;97.18
64200;BME280;50516;52.272;5.136;2022-12-22T04:20:26;100213.47;;;10.50;96.88
64200;BME280;50516;52.272;5.136;2022-12-22T04:22:52;100213.22;;;10.46;97.01
64200;BME280;50516;52.272;5.136;2022-12-22T04:25:18;100213.50;;;10.45;97.21
64200;BME280;50516;52.272;5.136;2022-12-22T04:27:44;100211.88;;;10.44;97.08
64200;BME280;50516;52.272;5.136;2022-12-22T04:30:10;100227.25;;;10.39;97.12
64200;BME280;50516;52.272;5.136;2022-12-22T04:32:36;100228.66;;;10.32;97.66
64200;BME280;50516;52.272;5.136;2022-12-22T04:35:02;100231.38;;;10.42;97.56
64200;BME280;50516;52.272;5.136;2022-12-22T04:37:28;100228.13;;;10.35;97.29
64200;BME280;50516;52.272;5.136;2022-12-22T04:39:53;100233.88;;;10.38;97.31
64200;BME280;50516;52.272;5.136;2022-12-22T04:42:18;100227.31;;;10.34;97.21
64200;BME280;50516;52.272;5.136;2022-12-22T04:44:44;100236.34;;;10.40;97.30
64200;BME280;50516;52.272;5.136;2022-12-22T04:47:09;100238.19;;;10.45;96.79
64200;BME280;50516;52.272;5.136;2022-12-22T04:49:34;100244.81;;;10.44;96.90
64200;BME280;50516;52.272;5.136;2022-12-22T04:52:00;100240.41;;;10.43;96.93
64200;BME280;50516;52.272;5.136;2022-12-22T04:54:25;100241.78;;;10.45;96.80
64200;BME280;50516;52.272;5.136;2022-12-22T04:56:51;100237.16;;;10.40;97.06
64200;BME280;50516;52.272;5.136;2022-12-22T04:59:17;100238.47;;;10.43;96.82
64200;BME280;50516;52.272;5.136;2022-12-22T05:01:42;100227.84;;;10.36;97.40
64200;BME280;50516;52.272;5.136;2022-12-22T05:04:07;100230.00;;;10.39;96.95
64200;BME280;50516;52.272;5.136;2022-12-22T05:06:33;100245.72;;;10.23;97.93
64200;BME280;50516;52.272;5.136;2022-12-22T05:08:58;100238.84;;;10.26;97.91
64200;BME280;50516;52.272;5.136;2022-12-22T05:11:24;100242.97;;;10.34;97.35
64200;BME280;50516;52.272;5.136;2022-12-22T05:13:49;100238.28;;;10.34;97.15
64200;BME280;50516;52.272;5.136;2022-12-22T05:16:16;100234.22;;;10.21;97.58
64200;BME280;50516;52.272;5.136;2022-12-22T05:18:42;100233.97;;;10.18;97.99
64200;BME280;50516;52.272;5.136;2022-12-22T05:21:20;100233.41;;;10.21;98.30
64200;BME280;50516;52.272;5.136;2022-12-22T05:23:46;100236.41;;;10.24;97.78
64200;BME280;50516;52.272;5.136;2022-12-22T05:26:12;100241.16;;;10.09;98.18
64200;BME280;50516;52.272;5.136;2022-12-22T05:28:39;100249.41;;;10.09;98.34
64200;BME280;50516;52.272;5.136;2022-12-22T05:31:10;100259.31;;;9.99;98.30
64200;BME280;50516;52.272;5.136;2022-12-22T05:33:38;100272.50;;;9.97;98.81
64200;BME280;50516;52.272;5.136;2022-12-22T05:36:03;100262.13;;;9.89;99.17
64200;BME280;50516;52.272;5.136;2022-12-22T05:38:29;100273.91;;;9.95;99.21
64200;BME280;50516;52.272;5.136;2022-12-22T05:40:54;100268.97;;;9.92;99.01
64200;BME280;50516;52.272;5.136;2022-12-22T05:43:19;100267.25;;;10.01;98.82
64200;BME280;50516;52.272;5.136;2022-12-22T05:45:45;100255.97;;;10.08;97.84
64200;BME280;50516;52.272;5.136;2022-12-22T05:48:11;100260.41;;;10.03;97.63
64200;BME280;50516;52.272;5.136;2022-12-22T05:50:37;100263.47;;;9.97;97.93
64200;BME280;50516;52.272;5.136;2022-12-22T05:53:03;100259.38;;;9.89;97.83
64200;BME280;50516;52.272;5.136;2022-12-22T05:55:28;100251.72;;;9.86;97.52
64200;BME280;50516;52.272;5.136;2022-12-22T05:57:53;100269.56;;;9.83;97.05
64200;BME280;50516;52.272;5.136;2022-12-22T06:00:19;100274.75;;;9.85;96.98
64200;BME280;50516;52.272;5.136;2022-12-22T06:02:45;100270.09;;;9.85;96.85
64200;BME280;50516;52.272;5.136;2022-12-22T06:05:12;100277.75;;;9.89;96.33
64200;BME280;50516;52.272;5.136;2022-12-22T06:07:38;100284.69;;;9.71;96.90
64200;BME280;50516;52.272;5.136;2022-12-22T06:10:04;100291.53;;;9.73;97.20
64200;BME280;50516;52.272;5.136;2022-12-22T06:12:30;100282.75;;;9.76;97.10
64200;BME280;50516;52.272;5.136;2022-12-22T06:14:55;100285.50;;;9.71;96.60
64200;BME280;50516;52.272;5.136;2022-12-22T06:17:21;100298.16;;;9.62;96.83
64200;BME280;50516;52.272;5.136;2022-12-22T06:19:46;100305.56;;;9.61;96.97
64200;BME280;50516;52.272;5.136;2022-12-22T06:22:11;100299.59;;;9.39;98.01
64200;BME280;50516;52.272;5.136;2022-12-22T06:24:37;100293.88;;;9.14;98.92
64200;BME280;50516;52.272;5.136;2022-12-22T06:27:02;100300.97;;;9.26;99.22
64200;BME280;50516;52.272;5.136;2022-12-22T06:29:27;100297.97;;;9.17;98.79
64200;BME280;50516;52.272;5.136;2022-12-22T06:31:53;100302.91;;;9.25;99.06
64200;BME280;50516;52.272;5.136;2022-12-22T06:34:18;100320.69;;;9.33;98.56
64200;BME280;50516;52.272;5.136;2022-12-22T06:36:44;100317.09;;;9.43;98.32
64200;BME280;50516;52.272;5.136;2022-12-22T06:39:10;100325.88;;;9.35;98.00
64200;BME280;50516;52.272;5.136;2022-12-22T06:41:36;100326.44;;;9.37;98.48
64200;BME280;50516;52.272;5.136;2022-12-22T06:44:20;100314.63;;;9.52;97.52
64200;BME280;50516;52.272;5.136;2022-12-22T06:46:46;100317.09;;;9.53;97.38
64200;BME280;50516;52.272;5.136;2022-12-22T06:49:11;100323.69;;;9.47;97.56
64200;BME280;50516;52.272;5.136;2022-12-22T06:51:36;100324.78;;;9.46;97.71
64200;BME280;50516;52.272;5.136;2022-12-22T06:54:02;100326.16;;;9.43;97.74
64200;BME280;50516;52.272;5.136;2022-12-22T06:56:27;100326.19;;;9.23;98.58
64200;BME280;50516;52.272;5.136;2022-12-22T06:58:52;100332.50;;;9.18;98.87
64200;BME280;50516;52.272;5.136;2022-12-22T07:01:18;100345.09;;;9.19;98.92
64200;BME280;50516;52.272;5.136;2022-12-22T07:03:43;100343.16;;;9.30;99.10
64200;BME280;50516;52.272;5.136;2022-12-22T07:06:09;100350.28;;;9.31;98.40
64200;BME280;50516;52.272;5.136;2022-12-22T07:08:34;100346.44;;;9.37;98.67
64200;BME280;50516;52.272;5.136;2022-12-22T07:10:59;100346.72;;;9.30;98.21
64200;BME280;50516;52.272;5.136;2022-12-22T07:13:31;100351.91;;;9.42;98.46
64200;BME280;50516;52.272;5.136;2022-12-22T07:15:58;100371.66;;;9.34;98.28
64200;BME280;50516;52.272;5.136;2022-12-22T07:18:23;100372.75;;;9.43;98.19
64200;BME280;50516;52.272;5.136;2022-12-22T07:20:49;100380.13;;;9.43;98.01
64200;BME280;50516;52.272;5.136;2022-12-22T07:23:14;100374.94;;;9.46;97.23
64200;BME280;50516;52.272;5.136;2022-12-22T07:25:40;100363.41;;;9.49;97.21
64200;BME280;50516;52.272;5.136;2022-12-22T07:28:05;100367.00;;;9.45;97.14
64200;BME280;50516;52.272;5.136;2022-12-22T07:30:31;100376.84;;;9.46;97.00
64200;BME280;50516;52.272;5.136;2022-12-22T07:32:57;100380.94;;;9.48;96.63
64200;BME280;50516;52.272;5.136;2022-12-22T07:35:22;100390.53;;;9.51;96.71
64200;BME280;50516;52.272;5.136;2022-12-22T07:37:47;100404.78;;;9.43;96.37
64200;BME280;50516;52.272;5.136;2022-12-22T07:40:13;100396.03;;;9.36;96.08
64200;BME280;50516;52.272;5.136;2022-12-22T07:42:39;100403.72;;;9.34;95.99
64200;BME280;50516;52.272;5.136;2022-12-22T07:45:11;100408.38;;;9.28;96.52
64200;BME280;50516;52.272;5.136;2022-12-22T07:47:38;100411.09;;;9.28;96.08
64200;BME280;50516;52.272;5.136;2022-12-22T07:50:04;100416.84;;;9.21;95.46
64200;BME280;50516;52.272;5.136;2022-12-22T07:52:55;100416.88;;;9.16;95.34
64200;BME280;50516;52.272;5.136;2022-12-22T07:55:22;100411.13;;;9.12;95.32
64200;BME280;50516;52.272;5.136;2022-12-22T07:57:48;100416.03;;;9.05;95.08
64200;BME280;50516;52.272;5.136;2022-12-22T08:00:14;100423.16;;;9.01;94.90
64200;BME280;50516;52.272;5.136;2022-12-22T08:02:40;100426.72;;;8.97;94.40
64200;BME280;50516;52.272;5.136;2022-12-22T08:05:06;100417.94;;;9.00;94.15
64200;BME280;50516;52.272;5.136;2022-12-22T08:07:31;100424.50;;;8.93;93.34
64200;BME280;50516;52.272;5.136;2022-12-22T08:09:57;100432.47;;;8.95;93.10
64200;BME280;50516;52.272;5.136;2022-12-22T08:12:23;100432.72;;;8.99;92.66
64200;BME280;50516;52.272;5.136;2022-12-22T08:14:48;100425.06;;;9.01;92.38
64200;BME280;50516;52.272;5.136;2022-12-22T08:17:14;100432.72;;;8.99;92.36
64200;BME280;50516;52.272;5.136;2022-12-22T08:19:39;100430.00;;;8.93;92.65
64200;BME280;50516;52.272;5.136;2022-12-22T08:22:04;100422.84;;;8.92;92.77
64200;BME280;50516;52.272;5.136;2022-12-22T08:24:30;100430.53;;;8.95;92.59
64200;BME280;50516;52.272;5.136;2022-12-22T08:26:58;100439.84;;;9.00;92.42
64200;BME280;50516;52.272;5.136;2022-12-22T08:29:35;100441.47;;;9.06;92.59
64200;BME280;50516;52.272;5.136;2022-12-22T08:32:03;100450.53;;;9.06;92.78
64200;BME280;50516;52.272;5.136;2022-12-22T08:34:29;100457.41;;;9.14;92.67
64200;BME280;50516;52.272;5.136;2022-12-22T08:36:57;100469.44;;;9.13;92.63
64200;BME280;50516;52.272;5.136;2022-12-22T08:39:24;100469.72;;;9.06;93.08
64200;BME280;50516;52.272;5.136;2022-12-22T08:41:52;100468.38;;;9.14;92.99
64200;BME280;50516;52.272;5.136;2022-12-22T08:44:23;100469.72;;;9.11;93.01
64200;BME280;50516;52.272;5.136;2022-12-22T08:46:49;100473.25;;;9.12;92.97
64200;BME280;50516;52.272;5.136;2022-12-22T08:49:15;100486.97;;;9.12;92.71
64200;BME280;50516;52.272;5.136;2022-12-22T08:51:41;100490.50;;;9.02;92.74
64200;BME280;50516;52.272;5.136;2022-12-22T08:54:06;100493.25;;;9.02;92.79
64200;BME280;50516;52.272;5.136;2022-12-22T08:56:31;100499.56;;;9.03;92.86
64200;BME280;50516;52.272;5.136;2022-12-22T08:58:57;100491.34;;;9.03;92.86
64200;BME280;50516;52.272;5.136;2022-12-22T09:01:22;100492.97;;;9.09;92.65
64200;BME280;50516;52.272;5.136;2022-12-22T09:03:49;100495.16;;;9.02;92.66
64200;BME280;50516;52.272;5.136;2022-12-22T09:06:16;100488.03;;;9.06;92.42
64200;BME280;50516;52.272;5.136;2022-12-22T09:08:41;100494.09;;;9.08;92.91
64200;BME280;50516;52.272;5.136;2022-12-22T09:11:06;100495.19;;;9.07;92.58
64200;BME280;50516;52.272;5.136;2022-12-22T09:13:32;100499.84;;;9.17;92.67
64200;BME280;50516;52.272;5.136;2022-12-22T09:15:57;100504.53;;;9.21;92.35
64200;BME280;50516;52.272;5.136;2022-12-22T09:18:23;100506.97;;;9.18;92.47
64200;BME280;50516;52.272;5.136;2022-12-22T09:20:54;100513.56;;;9.22;92.13
64200;BME280;50516;52.272;5.136;2022-12-22T09:23:19;100509.72;;;9.18;92.25
64200;BME280;50516;52.272;5.136;2022-12-22T09:25:45;100522.88;;;9.21;92.54
64200;BME280;50516;52.272;5.136;2022-12-22T09:28:10;100529.72;;;9.28;91.80
64200;BME280;50516;52.272;5.136;2022-12-22T09:30:36;100537.13;;;9.28;92.00
64200;BME280;50516;52.272;5.136;2022-12-22T09:33:01;100523.97;;;9.30;91.59
64200;BME280;50516;52.272;5.136;2022-12-22T09:35:26;100531.38;;;9.40;91.33
64200;BME280;50516;52.272;5.136;2022-12-22T09:37:52;100534.69;;;9.42;91.66
64200;BME280;50516;52.272;5.136;2022-12-22T09:40:17;100525.91;;;9.40;91.63
64200;BME280;50516;52.272;5.136;2022-12-22T09:42:45;100530.03;;;9.32;91.77
64200;BME280;50516;52.272;5.136;2022-12-22T09:45:13;100534.13;;;9.40;92.00
64200;BME280;50516;52.272;5.136;2022-12-22T09:47:45;100535.50;;;9.37;91.36
64200;BME280;50516;52.272;5.136;2022-12-22T09:50:18;100549.47;;;9.36;91.46
64200;BME280;50516;52.272;5.136;2022-12-22T09:52:52;100552.75;;;9.43;91.68
64200;BME280;50516;52.272;5.136;2022-12-22T09:57:52;100562.09;;;9.37;91.62
64200;BME280;50516;52.272;5.136;2022-12-22T10:00:20;100556.88;;;9.35;91.73
64200;BME280;50516;52.272;5.136;2022-12-22T10:05:38;100557.41;;;9.32;91.83
64200;BME280;50516;52.272;5.136;2022-12-22T10:08:33;100547.81;;;9.35;91.87
64200;BME280;50516;52.272;5.136;2022-12-22T10:10:59;100544.00;;;9.41;91.47
64200;BME280;50516;52.272;5.136;2022-12-22T10:13:25;100555.50;;;9.43;91.66
64200;BME280;50516;52.272;5.136;2022-12-22T10:15:50;100544.28;;;9.44;91.37
64200;BME280;50516;52.272;5.136;2022-12-22T10:18:22;100550.88;;;9.48;90.79
64200;BME280;50516;52.272;5.136;2022-12-22T10:21:13;100556.06;;;9.50;91.08
64200;BME280;50516;52.272;5.136;2022-12-22T10:23:46;100541.00;;;9.53;90.50
64200;BME280;50516;52.272;5.136;2022-12-22T10:26:25;100554.72;;;9.63;90.03
64200;BME280;50516;52.272;5.136;2022-12-22T10:28:53;100563.75;;;9.58;90.24
64200;BME280;50516;52.272;5.136;2022-12-22T10:31:30;100569.25;;;9.68;90.04
64200;BME280;50516;52.272;5.136;2022-12-22T10:34:09;100569.25;;;9.79;89.43
64200;BME280;50516;52.272;5.136;2022-12-22T10:36:36;100573.09;;;9.83;88.97
64200;BME280;50516;52.272;5.136;2022-12-22T10:39:05;100568.44;;;9.83;88.91
64200;BME280;50516;52.272;5.136;2022-12-22T10:41:42;100572.53;;;9.96;88.49
64200;BME280;50516;52.272;5.136;2022-12-22T10:44:18;100568.69;;;10.13;88.02
64200;BME280;50516;52.272;5.136;2022-12-22T10:46:48;100570.06;;;10.00;88.52
64200;BME280;50516;52.272;5.136;2022-12-22T10:49:33;100571.44;;;10.13;87.69
64200;BME280;50516;52.272;5.136;2022-12-22T10:52:27;100564.84;;;10.14;88.09
64200;BME280;50516;52.272;5.136;2022-12-22T10:55:17;100575.81;;;10.19;88.53
64200;BME280;50516;52.272;5.136;2022-12-22T10:57:42;100566.22;;;10.16;89.38
64200;BME280;50516;52.272;5.136;2022-12-22T11:00:30;100570.31;;;10.19;88.69
64200;BME280;50516;52.272;5.136;2022-12-22T11:02:57;100565.41;;;10.00;89.61
64200;BME280;50516;52.272;5.136;2022-12-22T11:05:23;100561.56;;;9.91;90.36
64200;BME280;50516;52.272;5.136;2022-12-22T11:07:49;100564.59;;;9.95;90.24
64200;BME280;50516;52.272;5.136;2022-12-22T11:15:44;100575.81;;;10.19;90.17
64200;BME280;50516;52.272;5.136;2022-12-22T11:21:01;100572.25;;;10.13;90.43
64200;BME280;50516;52.272;5.136;2022-12-22T11:39:37;100580.44;;;10.49;90.15
64200;BME280;50516;52.272;5.136;2022-12-22T11:42:23;100572.50;;;10.43;90.00
64200;BME280;50516;52.272;5.136;2022-12-22T11:45:07;100561.53;;;10.22;91.44
64200;BME280;50516;52.272;5.136;2022-12-22T11:50:31;100574.47;;;10.37;90.44
64200;BME280;50516;52.272;5.136;2022-12-22T11:56:01;100563.72;;;10.25;91.74
64200;BME280;50516;52.272;5.136;2022-12-22T12:01:42;100568.13;;;10.21;91.22
64200;BME280;50516;52.272;5.136;2022-12-22T12:14:38;100555.75;;;10.49;91.64
64200;BME280;50516;52.272;5.136;2022-12-22T12:28:20;100563.50;;;10.11;92.30
64200;BME280;50516;52.272;5.136;2022-12-22T12:30:51;100567.88;;;10.07;92.48
64200;BME280;50516;52.272;5.136;2022-12-22T12:41:39;100555.53;;;10.35;91.20
64200;BME280;50516;52.272;5.136;2022-12-22T12:44:14;100555.22;;;10.21;92.46
64200;BME280;50516;52.272;5.136;2022-12-22T13:08:10;100605.88;;;9.16;94.17
64200;BME280;50516;52.272;5.136;2022-12-22T13:10:40;100607.16;;;8.98;95.63
64200;BME280;50516;52.272;5.136;2022-12-22T13:13:10;100604.09;;;8.89;95.25
64200;BME280;50516;52.272;5.136;2022-12-22T13:15:38;100595.06;;;8.89;94.35
64200;BME280;50516;52.272;5.136;2022-12-22T13:21:06;100589.63;;;9.04;94.04
64200;BME280;50516;52.272;5.136;2022-12-22T13:23:39;100594.28;;;8.93;94.06
64200;BME280;50516;52.272;5.136;2022-12-22T13:28:31;100592.09;;;8.95;93.69
64200;BME280;50516;52.272;5.136;2022-12-22T13:31:03;100580.06;;;9.02;92.65
64200;BME280;50516;52.272;5.136;2022-12-22T13:33:30;100580.88;;;9.07;92.80
64200;BME280;50516;52.272;5.136;2022-12-22T13:35:59;100581.75;;;9.13;93.13
64200;BME280;50516;52.272;5.136;2022-12-22T13:38:32;100582.00;;;9.06;92.78
64200;BME280;50516;52.272;5.136;2022-12-22T13:40:59;100576.78;;;9.00;93.13
64200;BME280;50516;52.272;5.136;2022-12-22T13:43:28;100567.44;;;9.01;93.11
64200;BME280;50516;52.272;5.136;2022-12-22T13:46:00;100574.59;;;9.02;93.37
64200;BME280;50516;52.272;5.136;2022-12-22T13:48:41;100557.03;;;8.98;93.22
64200;BME280;50516;52.272;5.136;2022-12-22T13:51:16;100555.16;;;9.03;93.30
64200;BME280;50516;52.272;5.136;2022-12-22T13:53:45;100552.69;;;9.02;93.39
64200;BME280;50516;52.272;5.136;2022-12-22T13:56:19;100547.41;;;8.85;93.11
64200;BME280;50516;52.272;5.136;2022-12-22T13:58:46;100543.66;;;9.01;92.86
64200;BME280;50516;52.272;5.136;2022-12-22T14:01:17;100541.19;;;9.00;93.15
64200;BME280;50516;52.272;5.136;2022-12-22T14:06:40;100541.47;;;9.08;92.87
64200;BME280;50516;52.272;5.136;2022-12-22T14:09:15;100545.00;;;9.09;93.20
64200;BME280;50516;52.272;5.136;2022-12-22T14:11:44;100547.22;;;9.17;92.47
64200;BME280;50516;52.272;5.136;2022-12-22T14:14:16;100537.91;;;9.13;92.70
64200;BME280;50516;52.272;5.136;2022-12-22T14:16:44;100536.84;;;9.19;92.51
64200;BME280;50516;52.272;5.136;2022-12-22T14:19:14;100529.44;;;9.20;92.00
64200;BME280;50516;52.272;5.136;2022-12-22T14:21:46;100530.84;;;9.32;91.34
64200;BME280;50516;52.272;5.136;2022-12-22T14:24:18;100531.09;;;9.26;91.24
64200;BME280;50516;52.272;5.136;2022-12-22T14:26:46;100531.66;;;9.33;92.00
64200;BME280;50516;52.272;5.136;2022-12-22T14:29:18;100534.97;;;9.35;91.92
64200;BME280;50516;52.272;5.136;2022-12-22T14:31:57;100523.16;;;9.29;91.74
64200;BME280;50516;52.272;5.136;2022-12-22T14:34:25;100513.59;;;9.32;91.14
64200;BME280;50516;52.272;5.136;2022-12-22T14:36:50;100506.19;;;9.32;91.76
64200;BME280;50516;52.272;5.136;2022-12-22T14:39:27;100508.66;;;9.39;91.50
64200;BME280;50516;52.272;5.136;2022-12-22T14:42:02;100511.38;;;9.39;91.22
64200;BME280;50516;52.272;5.136;2022-12-22T14:44:32;100504.81;;;9.35;91.12
64200;BME280;50516;52.272;5.136;2022-12-22T14:49:46;100502.31;;;9.28;91.16
64200;BME280;50516;52.272;5.136;2022-12-22T14:52:36;100497.38;;;9.20;92.05
64200;BME280;50516;52.272;5.136;2022-12-22T14:55:05;100488.09;;;9.31;91.25
64200;BME280;50516;52.272;5.136;2022-12-22T14:57:35;100484.81;;;9.35;91.11
64200;BME280;50516;52.272;5.136;2022-12-22T15:00:31;100491.13;;;9.35;91.26
64200;BME280;50516;52.272;5.136;2022-12-22T15:03:03;100486.72;;;9.39;91.19
64200;BME280;50516;52.272;5.136;2022-12-22T15:05:35;100489.19;;;9.46;90.84
64200;BME280;50516;52.272;5.136;2022-12-22T15:08:04;100489.75;;;9.48;90.67
64200;BME280;50516;52.272;5.136;2022-12-22T15:10:48;100486.44;;;9.51;90.52
64200;BME280;50516;52.272;5.136;2022-12-22T15:13:20;100475.47;;;9.51;90.41
64200;BME280;50516;52.272;5.136;2022-12-22T15:15:49;100474.94;;;9.49;90.50
64200;BME280;50516;52.272;5.136;2022-12-22T15:18:14;100470.00;;;9.46;91.12